Time;durP1;ratioP1;P1;durP2;ratioP2;P2;SDS_P1;SDS_P2;PMS_P1;PMS_P2;Temp;Humidity;BMP_temperature;BMP_pressure;BME280_temperature;BME280_humidity;BME280_pressure;Samples;Min_cycle;Max_cycle;Signal;HPM_P1;HPM_P2
2022/01/14 00:01:05;;;;;;;25.80;21.43;;;;;;;-1.01;77.63;100661.28;4091682;28;20223;-55
2022/01/14 00:03:07;;;;;;;23.53;20.80;;;;;;;-1.01;77.62;100660.44;4091089;28;20246;-54
2022/01/14 00:05:09;;;;;;;23.93;21.10;;;;;;;-1.05;77.46;100656.28;4091323;28;20997;-55
2022/01/14 00:07:11;;;;;;;21.97;19.83;;;;;;;-0.90;77.85;100663.97;4092495;29;20581;-55
2022/01/14 00:09:14;;;;;;;24.50;21.97;;;;;;;-0.95;77.39;100654.56;4093115;28;20218;-54
2022/01/14 00:11:18;;;;;;;24.80;20.03;;;;;;;-0.97;77.42;100661.88;4108360;28;20281;-53
2022/01/14 00:15:40;;;;;;;25.33;22.60;;;;;;;-0.98;77.84;100662.88;4107548;28;20218;-52
2022/01/14 00:17:42;;;;;;;25.67;22.97;;;;;;;-0.98;77.69;100660.19;4092303;28;20219;-54
2022/01/14 00:19:43;;;;;;;22.97;20.63;;;;;;;-0.97;77.84;100662.75;4092779;28;20265;-54
2022/01/14 00:21:46;;;;;;;23.57;21.27;;;;;;;-0.95;77.61;100655.41;4106038;28;20314;-55
2022/01/14 00:23:51;;;;;;;24.43;22.37;;;;;;;-0.97;77.58;100651.13;4105905;28;20675;-55
2022/01/14 00:34:56;;;;;;;29.53;21.60;;;;;;;-1.09;77.16;100644.94;4107999;28;20243;-55
2022/01/14 00:37:00;;;;;;;22.47;20.30;;;;;;;-1.11;77.05;100643.34;4072481;29;20284;-53
2022/01/14 00:39:01;;;;;;;25.03;20.37;;;;;;;-1.07;77.42;100642.97;4074957;28;20205;-52
2022/01/14 00:41:03;;;;;;;25.97;21.77;;;;;;;-1.10;77.40;100634.31;4092129;28;20741;-53
2022/01/14 00:43:06;;;;;;;29.60;22.67;;;;;;;-1.14;77.33;100639.09;4077662;29;20216;-53
2022/01/14 00:45:10;;;;;;;23.87;20.80;;;;;;;-0.99;77.19;100637.00;4108176;28;20523;-53
2022/01/14 00:47:11;;;;;;;28.33;22.63;;;;;;;-1.06;77.25;100636.66;4076509;29;20308;-53
2022/01/14 00:49:20;;;;;;;25.77;22.23;;;;;;;-1.11;77.40;100630.78;4074028;28;20232;-54
2022/01/14 00:51:23;;;;;;;26.07;23.57;;;;;;;-1.18;77.05;100631.41;4105683;28;20234;-54
2022/01/14 00:53:24;;;;;;;27.97;22.03;;;;;;;-1.18;77.39;100626.03;4091351;29;20719;-52
2022/01/14 00:55:29;;;;;;;25.67;19.77;;;;;;;-1.23;77.59;100623.72;4092996;28;20769;-53
2022/01/14 01:00:02;;;;;;;22.77;19.60;;;;;;;-1.21;77.48;100620.94;4045188;29;20233;-52
2022/01/14 01:02:04;;;;;;;25.50;20.60;;;;;;;-1.17;77.65;100620.53;4088028;29;20227;-52
2022/01/14 01:04:06;;;;;;;22.17;19.50;;;;;;;-1.14;77.69;100614.06;4090494;28;20231;-53
2022/01/14 01:06:08;;;;;;;20.93;19.03;;;;;;;-1.14;77.27;100619.44;4103485;28;20297;-53
2022/01/14 01:08:13;;;;;;;25.40;18.13;;;;;;;-1.13;77.50;100613.97;4070447;28;20572;-53
2022/01/14 01:10:17;;;;;;;21.23;19.33;;;;;;;-1.13;77.46;100619.34;4074679;29;20256;-52
2022/01/14 01:15:05;;;;;;;24.60;21.27;;;;;;;-1.15;77.31;100609.69;4039597;29;20240;-52
2022/01/14 01:17:07;;;;;;;22.97;20.63;;;;;;;-1.17;77.24;100620.53;4067267;29;20854;-52
2022/01/14 01:19:09;;;;;;;27.73;20.50;;;;;;;-1.15;77.11;100615.06;4093498;28;20730;-54
2022/01/14 01:21:11;;;;;;;22.23;20.03;;;;;;;-1.18;77.13;100610.78;4091733;28;20637;-54
2022/01/14 01:23:13;;;;;;;23.50;20.97;;;;;;;-1.18;76.93;100612.59;4091402;28;20234;-53
2022/01/14 01:25:18;;;;;;;23.63;19.23;;;;;;;-1.24;77.05;100613.97;4075045;29;20204;-54
2022/01/14 01:27:21;;;;;;;22.07;18.27;;;;;;;-1.22;77.16;100608.47;4107037;28;20557;-52
2022/01/14 01:31:40;;;;;;;21.10;18.90;;;;;;;-1.23;76.88;100614.81;4102887;28;20249;-55
2022/01/14 01:33:41;;;;;;;21.23;18.37;;;;;;;-1.23;76.98;100617.47;4103661;28;20242;-54
2022/01/14 01:35:43;;;;;;;23.10;21.00;;;;;;;-1.25;76.75;100622.13;4087364;29;20212;-55
2022/01/14 01:37:45;;;;;;;24.53;19.60;;;;;;;-1.26;76.86;100620.44;4088731;28;20235;-55
2022/01/14 01:39:47;;;;;;;22.47;18.27;;;;;;;-1.28;76.90;100622.41;4087119;28;20259;-53
2022/01/14 01:41:54;;;;;;;21.73;18.77;;;;;;;-1.30;77.13;100621.66;4072817;28;20240;-52
2022/01/14 01:43:57;;;;;;;21.47;19.33;;;;;;;-1.32;76.72;100628.97;4074810;29;20231;-52
2022/01/14 01:45:59;;;;;;;20.83;18.77;;;;;;;-1.33;76.82;100620.06;4089812;28;20960;-54
2022/01/14 01:48:01;;;;;;;23.03;19.43;;;;;;;-1.33;76.88;100628.13;4074586;29;20235;-51
2022/01/14 01:50:11;;;;;;;22.37;19.83;;;;;;;-1.35;76.91;100618.50;4106912;28;20238;-52
2022/01/14 01:52:13;;;;;;;18.13;16.33;;;;;;;-1.36;76.85;100622.13;4091057;28;20215;-51
2022/01/14 01:54:15;;;;;;;20.07;18.07;;;;;;;-1.35;77.02;100608.59;4107494;28;20641;-52
2022/01/14 01:56:17;;;;;;;18.77;16.97;;;;;;;-1.36;76.86;100611.41;4090540;28;20218;-52
2022/01/14 01:58:19;;;;;;;19.50;17.47;;;;;;;-1.38;77.01;100614.22;4092177;29;20212;-53
2022/01/14 02:00:24;;;;;;;20.90;18.73;;;;;;;-1.38;76.72;100618.72;4073110;29;20227;-54
2022/01/14 02:02:26;;;;;;;22.63;19.33;;;;;;;-1.40;77.01;100604.59;4105518;28;20753;-51
2022/01/14 02:04:29;;;;;;;19.87;18.03;;;;;;;-1.43;76.99;100613.75;4091229;28;20329;-52
2022/01/14 02:06:31;;;;;;;22.97;20.40;;;;;;;-1.42;76.90;100601.19;4093374;28;20211;-53
2022/01/14 02:08:33;;;;;;;22.03;19.20;;;;;;;-1.42;76.93;100602.03;4092755;28;20298;-53
2022/01/14 02:10:37;;;;;;;22.03;19.20;;;;;;;-1.42;77.07;100596.66;4095641;28;20583;-52
2022/01/14 02:12:49;;;;;;;19.90;17.93;;;;;;;-1.38;77.12;100602.63;4094079;28;20244;-53
2022/01/14 02:17:28;;;;;;;20.27;18.37;;;;;;;-1.40;76.92;100594.69;4108516;28;21506;-53
2022/01/14 02:19:31;;;;;;;20.27;18.27;;;;;;;-1.37;76.80;100588.22;4107604;28;20214;-53
2022/01/14 02:24:20;;;;;;;22.33;18.00;;;;;;;-1.42;76.76;100577.03;4109538;28;20246;-56
2022/01/14 02:26:22;;;;;;;19.27;17.47;;;;;;;-1.43;76.86;100575.28;4084464;28;20204;-54
2022/01/14 02:28:24;;;;;;;21.03;17.90;;;;;;;-1.46;76.48;100567.50;4089114;28;20654;-55
2022/01/14 02:30:30;;;;;;;20.37;18.47;;;;;;;-1.47;76.74;100571.16;4106620;28;20226;-54
2022/01/14 02:32:32;;;;;;;18.67;16.83;;;;;;;-1.46;76.54;100557.63;4087693;28;20199;-54
2022/01/14 02:34:36;;;;;;;21.10;19.07;;;;;;;-1.45;76.73;100569.19;4074622;29;20302;-56
2022/01/14 02:36:40;;;;;;;19.77;17.80;;;;;;;-1.47;76.56;100566.63;4102412;28;20266;-53
2022/01/14 02:38:44;;;;;;;20.07;18.17;;;;;;;-1.47;76.82;100560.44;4089745;28;20235;-54
2022/01/14 02:40:47;;;;;;;20.80;18.60;;;;;;;-1.51;76.55;100553.59;4107515;28;20796;-53
2022/01/14 02:42:49;;;;;;;24.07;18.17;;;;;;;-1.51;76.89;100548.22;4090775;29;20231;-52
2022/01/14 02:45:00;;;;;;;19.93;17.87;;;;;;;-1.50;76.69;100549.94;4093357;28;20216;-54
2022/01/14 02:47:05;;;;;;;20.20;18.00;;;;;;;-1.48;77.09;100550.69;4093683;28;20233;-54
2022/01/14 02:49:07;;;;;;;20.33;18.33;;;;;;;-1.49;76.82;100549.81;4106958;28;20206;-54
2022/01/14 02:51:12;;;;;;;21.17;18.20;;;;;;;-1.50;76.80;100544.56;4079221;29;20754;-52
2022/01/14 02:53:26;;;;;;;19.23;17.07;;;;;;;-1.51;76.92;100537.50;4080316;28;20196;-54
2022/01/14 02:55:30;;;;;;;25.20;17.77;;;;;;;-1.50;76.58;100539.19;4088164;28;20231;-56
2022/01/14 02:57:33;;;;;;;18.97;15.97;;;;;;;-1.48;76.67;100537.25;4109635;28;20561;-52
2022/01/14 02:59:38;;;;;;;18.77;16.97;;;;;;;-1.51;76.60;100533.00;4107277;28;20673;-53
2022/01/14 03:01:40;;;;;;;18.53;16.63;;;;;;;-1.52;76.45;100533.09;4092467;28;20207;-52
2022/01/14 03:03:45;;;;;;;22.00;17.97;;;;;;;-1.52;76.67;100530.41;4093893;29;20299;-55
2022/01/14 03:05:47;;;;;;;20.23;18.23;;;;;;;-1.53;76.63;100531.41;4091837;28;20805;-54
2022/01/14 03:07:49;;;;;;;17.57;15.90;;;;;;;-1.56;76.63;100528.94;4107126;28;20689;-53
2022/01/14 03:09:51;;;;;;;22.53;20.17;;;;;;;-1.59;76.42;100529.22;4108674;28;20251;-53
2022/01/14 03:11:53;;;;;;;19.43;17.67;;;;;;;-1.59;76.39;100524.72;4091293;28;20226;-55
2022/01/14 03:13:55;;;;;;;24.63;19.07;;;;;;;-1.59;76.65;100529.22;4092865;28;21181;-54
2022/01/14 03:15:57;;;;;;;20.57;18.57;;;;;;;-1.59;77.03;100523.84;4090323;29;20227;-55
2022/01/14 03:17:59;;;;;;;24.47;18.70;;;;;;;-1.61;76.97;100529.34;4093242;28;20254;-52
2022/01/14 03:20:02;;;;;;;19.80;18.00;;;;;;;-1.61;76.60;100520.44;4078167;29;20240;-53
2022/01/14 03:22:18;;;;;;;19.97;17.97;;;;;;;-1.63;76.45;100522.38;4089628;28;20604;-52
2022/01/14 03:24:23;;;;;;;21.50;19.20;;;;;;;-1.63;76.93;100517.88;4110999;28;20190;-54
2022/01/14 03:26:25;;;;;;;19.13;17.07;;;;;;;-1.64;76.44;100518.84;4093841;28;20234;-53
2022/01/14 03:28:26;;;;;;;20.33;18.37;;;;;;;-1.63;76.62;100511.63;4091658;28;20211;-53
2022/01/14 03:30:28;;;;;;;20.83;18.73;;;;;;;-1.62;76.78;100518.75;4071752;29;20742;-53
2022/01/14 03:32:30;;;;;;;21.33;19.13;;;;;;;-1.64;76.56;100520.69;4092328;28;20231;-54
2022/01/14 03:34:31;;;;;;;21.57;19.43;;;;;;;-1.64;76.60;100526.91;4094330;28;20239;-55
2022/01/14 03:36:33;;;;;;;20.07;18.23;;;;;;;-1.65;76.73;100521.66;4107562;28;20234;-54
2022/01/14 03:38:35;;;;;;;21.57;19.37;;;;;;;-1.66;76.31;100525.31;4093016;28;20204;-54
2022/01/14 03:40:37;;;;;;;25.93;19.73;;;;;;;-1.67;76.73;100520.94;4092956;28;20223;-53
2022/01/14 03:42:39;;;;;;;21.07;18.87;;;;;;;-1.68;76.70;100519.22;4106745;28;20269;-53
2022/01/14 03:44:41;;;;;;;20.50;18.20;;;;;;;-1.72;76.32;100524.00;4109826;28;20203;-53
2022/01/14 03:46:43;;;;;;;19.10;17.23;;;;;;;-1.72;76.38;100524.00;4107310;28;20261;-52
2022/01/14 03:48:45;;;;;;;20.60;17.80;;;;;;;-1.75;76.61;100526.91;4093185;28;20242;-52
2022/01/14 03:50:47;;;;;;;20.40;18.47;;;;;;;-1.76;76.57;100530.56;4090587;28;20238;-55
2022/01/14 03:52:49;;;;;;;22.37;19.20;;;;;;;-1.76;76.75;100532.38;4092548;28;20214;-53
2022/01/14 03:54:51;;;;;;;22.33;17.87;;;;;;;-1.80;76.60;100523.72;4092189;28;20218;-53
2022/01/14 03:57:12;;;;;;;19.07;17.27;;;;;;;-1.78;76.81;100529.00;4109085;28;20213;-53
2022/01/14 03:59:14;;;;;;;19.93;18.07;;;;;;;-1.79;76.66;100535.34;4078336;29;20239;-53
2022/01/14 04:01:16;;;;;;;20.60;18.40;;;;;;;-1.81;76.69;100529.25;4104293;28;20239;-53
2022/01/14 04:03:18;;;;;;;19.00;17.20;;;;;;;-1.83;76.67;100526.69;4107196;28;20214;-53
2022/01/14 04:05:19;;;;;;;20.83;18.83;;;;;;;-1.76;76.27;100532.38;4105574;28;20289;-53
2022/01/14 04:07:21;;;;;;;19.10;17.27;;;;;;;-1.73;76.37;100534.84;4106715;28;20211;-55
2022/01/14 04:09:23;;;;;;;20.50;18.33;;;;;;;-1.79;76.11;100529.97;4107391;28;20214;-53
2022/01/14 04:11:25;;;;;;;25.17;18.57;;;;;;;-1.72;76.36;100528.50;4107471;28;20207;-53
2022/01/14 04:16:00;;;;;;;19.37;17.33;;;;;;;-1.76;76.36;100524.34;4067958;28;20210;-53
2022/01/14 04:18:08;;;;;;;19.33;16.77;;;;;;;-1.78;76.43;100526.31;4107253;28;20560;-53
2022/01/14 04:20:10;;;;;;;19.83;17.83;;;;;;;-1.75;76.42;100521.53;4102903;28;20238;-55
2022/01/14 04:22:12;;;;;;;22.30;20.10;;;;;;;-1.79;76.55;100521.91;4104932;28;20261;-53
2022/01/14 04:24:14;;;;;;;19.87;17.27;;;;;;;-1.78;76.52;100523.63;4104584;28;20282;-53
2022/01/14 04:26:19;;;;;;;22.93;16.70;;;;;;;-1.80;76.60;100514.84;4105085;28;20202;-53
2022/01/14 04:28:23;;;;;;;19.93;17.93;;;;;;;-1.82;76.66;100511.44;4091641;28;20303;-53
2022/01/14 04:30:25;;;;;;;25.77;18.43;;;;;;;-1.84;76.69;100516.06;4089704;28;20237;-54
2022/01/14 04:32:26;;;;;;;19.07;16.97;;;;;;;-1.85;76.83;100506.31;4088276;28;20234;-52
2022/01/14 04:34:28;;;;;;;21.10;18.00;;;;;;;-1.87;76.55;100513.66;4070515;29;20209;-55
2022/01/14 04:36:30;;;;;;;21.70;18.80;;;;;;;-1.88;76.46;100511.94;4103550;28;20661;-55
2022/01/14 04:38:32;;;;;;;20.03;18.13;;;;;;;-1.92;76.55;100499.75;4089252;28;20234;-55
2022/01/14 04:40:34;;;;;;;19.63;17.73;;;;;;;-1.93;76.54;100500.72;4092245;28;20263;-53
2022/01/14 04:42:41;;;;;;;20.20;17.83;;;;;;;-1.92;76.62;100499.75;4108169;28;20268;-54
2022/01/14 04:44:43;;;;;;;18.17;16.37;;;;;;;-1.91;76.67;100490.72;4091847;28;20230;-54
2022/01/14 04:48:47;;;;;;;19.07;17.07;;;;;;;-1.90;76.49;100497.78;4090599;28;20329;-53
2022/01/14 04:50:53;;;;;;;20.37;18.40;;;;;;;-1.91;76.37;100496.06;4102188;28;20779;-55
2022/01/14 04:52:58;;;;;;;20.83;18.63;;;;;;;-1.94;76.64;100496.34;4087330;28;20214;-52
2022/01/14 04:54:59;;;;;;;20.60;18.73;;;;;;;-1.94;76.54;100499.03;4092573;29;20573;-54
2022/01/14 04:57:01;;;;;;;23.47;19.70;;;;;;;-1.93;76.61;100493.50;4073683;29;20279;-52
2022/01/14 04:59:03;;;;;;;20.63;18.07;;;;;;;-1.98;76.27;100484.13;4090176;28;20207;-54
2022/01/14 05:01:05;;;;;;;19.00;16.37;;;;;;;-2.01;76.18;100500.47;4090396;29;20242;-52
2022/01/14 05:03:07;;;;;;;15.67;14.07;;;;;;;-2.02;76.45;100498.78;4089890;28;20227;-52
2022/01/14 05:05:10;;;;;;;17.70;15.90;;;;;;;-2.02;76.12;100490.75;4091693;28;20211;-52
2022/01/14 05:07:22;;;;;;;17.57;16.10;;;;;;;-2.01;76.31;100492.44;4106628;28;20245;-52
2022/01/14 05:09:30;;;;;;;17.43;15.83;;;;;;;-2.02;76.26;100498.78;4109571;28;20234;-52
2022/01/14 05:11:41;;;;;;;22.03;17.67;;;;;;;-2.02;76.42;100504.16;4092164;28;20207;-54
2022/01/14 05:13:42;;;;;;;18.93;17.10;;;;;;;-2.03;76.63;100503.28;4090029;28;20206;-56
2022/01/14 05:15:46;;;;;;;21.50;19.23;;;;;;;-2.01;76.42;100501.31;4107964;28;20576;-53
2022/01/14 05:17:48;;;;;;;25.70;20.13;;;;;;;-2.00;76.36;100502.19;4099739;28;20338;-54
2022/01/14 05:19:50;;;;;;;24.43;19.43;;;;;;;-2.02;76.50;100509.50;4087794;28;20737;-54
2022/01/14 05:21:52;;;;;;;30.40;21.33;;;;;;;-2.02;76.36;100498.78;4088063;28;20235;-54
2022/01/14 05:23:55;;;;;;;24.17;18.70;;;;;;;-2.03;76.36;100499.72;4104328;28;20262;-54
2022/01/14 05:25:57;;;;;;;22.03;19.67;;;;;;;-2.04;76.25;100500.72;4099993;28;20238;-52
2022/01/14 05:27:59;;;;;;;21.70;18.67;;;;;;;-2.08;76.10;100510.00;4084096;28;21015;-52
2022/01/14 05:30:02;;;;;;;19.47;17.53;;;;;;;-2.13;76.26;100506.81;4088908;28;20743;-54
2022/01/14 05:32:05;;;;;;;20.83;18.93;;;;;;;-2.12;76.29;100508.53;4084620;28;20203;-53
2022/01/14 05:34:07;;;;;;;21.17;18.87;;;;;;;-2.12;76.22;100506.72;4103650;28;20242;-53
2022/01/14 05:36:09;;;;;;;19.83;17.87;;;;;;;-2.12;76.38;100505.84;4094135;28;20207;-53
2022/01/14 05:38:10;;;;;;;21.47;17.73;;;;;;;-2.13;76.11;100501.47;4089863;28;20549;-53
2022/01/14 05:40:13;;;;;;;25.80;18.57;;;;;;;-2.15;76.41;100503.41;4102978;28;20718;-54
2022/01/14 05:42:15;;;;;;;19.77;17.80;;;;;;;-2.19;76.29;100504.63;4103969;28;20729;-53
2022/01/14 05:44:17;;;;;;;19.67;17.67;;;;;;;-2.18;76.63;100504.50;4105537;28;20242;-54
2022/01/14 05:46:19;;;;;;;20.67;15.77;;;;;;;-2.17;76.33;100498.16;4075372;28;20208;-52
2022/01/14 05:48:21;;;;;;;18.23;16.43;;;;;;;-2.18;76.60;100500.97;4087949;28;21948;-54
2022/01/14 05:50:25;;;;;;;17.83;15.93;;;;;;;-2.21;76.13;100496.69;4107807;28;20257;-53
2022/01/14 05:52:27;;;;;;;21.27;18.80;;;;;;;-2.18;76.59;100503.63;4090020;28;20741;-53
2022/01/14 05:54:28;;;;;;;18.50;16.53;;;;;;;-2.16;76.79;100501.69;4107519;28;20388;-53
2022/01/14 05:56:30;;;;;;;19.40;17.60;;;;;;;-2.13;76.39;100501.47;4088020;28;20207;-53
2022/01/14 05:58:32;;;;;;;22.40;18.77;;;;;;;-2.18;76.52;100499.16;4091651;28;20310;-53
2022/01/14 06:00:33;;;;;;;21.97;19.80;;;;;;;-2.21;76.39;100499.38;4090785;28;21101;-53
2022/01/14 06:02:35;;;;;;;21.50;19.33;;;;;;;-2.18;76.54;100492.91;4095301;28;20207;-53
2022/01/14 06:04:37;;;;;;;21.23;18.97;;;;;;;-2.13;76.37;100491.56;4106730;28;20215;-52
2022/01/14 06:06:39;;;;;;;20.43;18.37;;;;;;;-2.16;76.39;100491.81;4107559;28;20242;-53
2022/01/14 06:08:41;;;;;;;19.23;17.33;;;;;;;-2.18;76.54;100492.91;4107950;28;20289;-55
2022/01/14 06:10:43;;;;;;;28.40;18.30;;;;;;;-2.19;76.61;100492.09;4092143;29;20234;-55
2022/01/14 06:12:45;;;;;;;19.50;17.53;;;;;;;-2.23;76.68;100495.09;4093108;28;20250;-53
2022/01/14 06:14:47;;;;;;;21.60;18.53;;;;;;;-2.25;76.62;100491.69;4108089;28;20206;-53
2022/01/14 06:16:48;;;;;;;18.83;16.90;;;;;;;-2.22;76.58;100496.84;4089702;28;20455;-53
2022/01/14 06:18:50;;;;;;;20.23;18.33;;;;;;;-2.18;76.22;100487.56;4074500;29;20287;-54
2022/01/14 06:20:52;;;;;;;19.87;17.80;;;;;;;-2.12;76.25;100484.38;4100721;28;20230;-52
2022/01/14 06:22:53;;;;;;;18.67;16.77;;;;;;;-2.18;76.46;100492.91;4090971;28;20688;-55
2022/01/14 06:24:56;;;;;;;21.00;17.67;;;;;;;-2.23;76.46;100485.25;4089570;28;20785;-54
2022/01/14 06:26:58;;;;;;;22.70;18.03;;;;;;;-2.22;76.65;100488.78;4093167;28;20212;-55
2022/01/14 06:29:00;;;;;;;21.27;19.03;;;;;;;-2.24;76.56;100488.03;4088533;28;20207;-54
2022/01/14 06:31:01;;;;;;;19.50;17.57;;;;;;;-2.23;76.25;100487.06;4088415;28;20392;-55
2022/01/14 06:33:03;;;;;;;17.83;16.03;;;;;;;-2.25;76.32;100497.06;4091303;28;20366;-54
2022/01/14 06:35:05;;;;;;;17.23;15.73;;;;;;;-2.25;76.21;100491.69;4088109;28;20211;-53
2022/01/14 06:37:07;;;;;;;18.57;16.87;;;;;;;-2.26;76.27;100492.69;4105123;28;20203;-54
2022/01/14 06:39:09;;;;;;;19.47;17.73;;;;;;;-2.26;76.30;100498.03;4089799;29;20234;-54
2022/01/14 06:41:11;;;;;;;18.53;16.73;;;;;;;-2.27;76.20;100499.03;4088272;28;20665;-54
2022/01/14 06:43:17;;;;;;;18.03;16.33;;;;;;;-2.26;76.58;100500.72;4087584;28;20207;-53
2022/01/14 06:45:19;;;;;;;19.40;17.57;;;;;;;-2.30;76.14;100499.25;4104476;28;20242;-53
2022/01/14 06:47:22;;;;;;;19.30;17.43;;;;;;;-2.28;76.10;100500.00;4105136;28;20246;-54
2022/01/14 06:49:24;;;;;;;18.93;17.07;;;;;;;-2.33;76.37;100500.34;4086660;28;20251;-52
2022/01/14 06:51:25;;;;;;;17.23;15.70;;;;;;;-2.34;76.50;100497.78;4087694;28;20251;-55
2022/01/14 06:53:27;;;;;;;22.17;18.77;;;;;;;-2.35;76.16;100496.09;4108029;28;20245;-54
2022/01/14 06:55:29;;;;;;;19.67;17.87;;;;;;;-2.35;76.53;100501.44;4092437;28;20212;-54
2022/01/14 06:57:32;;;;;;;20.80;18.23;;;;;;;-2.37;76.38;100495.34;4105794;28;20625;-54
2022/01/14 06:59:34;;;;;;;18.50;16.70;;;;;;;-2.37;76.20;100504.25;4106750;28;20635;-54
2022/01/14 07:01:36;;;;;;;18.93;17.03;;;;;;;-2.34;76.14;100495.13;4092550;28;20954;-52
2022/01/14 07:03:38;;;;;;;19.87;17.47;;;;;;;-2.36;76.35;100497.03;4106289;28;20245;-53
2022/01/14 07:05:40;;;;;;;19.13;17.33;;;;;;;-2.38;76.04;100493.63;4107910;28;20203;-52
2022/01/14 07:07:41;;;;;;;20.13;17.70;;;;;;;-2.37;76.14;100495.34;4089005;28;20218;-53
2022/01/14 07:10:05;;;;;;;18.47;16.70;;;;;;;-2.36;76.44;100489.00;4101492;28;20230;-51
2022/01/14 07:12:07;;;;;;;20.47;18.47;;;;;;;-2.40;76.38;100492.91;4107639;28;20203;-51
2022/01/14 07:14:09;;;;;;;18.73;16.90;;;;;;;-2.41;76.35;100496.56;4093137;28;20248;-51
2022/01/14 07:16:11;;;;;;;18.87;16.90;;;;;;;-2.38;76.26;100507.03;4094177;28;20211;-51
2022/01/14 07:18:15;;;;;;;18.17;16.47;;;;;;;-2.37;76.57;100498.88;4088956;28;20633;-54
2022/01/14 07:20:18;;;;;;;18.77;17.00;;;;;;;-2.37;76.56;100503.38;4090099;28;20244;-51
2022/01/14 07:22:20;;;;;;;17.50;15.90;;;;;;;-2.36;76.26;100494.34;4090083;28;20219;-52
2022/01/14 07:24:22;;;;;;;18.73;16.93;;;;;;;-2.37;76.41;100498.03;4088638;28;20578;-53
2022/01/14 07:26:24;;;;;;;18.47;16.67;;;;;;;-2.37;76.28;100496.19;4107286;28;20241;-52
2022/01/14 07:28:25;;;;;;;15.63;14.23;;;;;;;-2.37;76.14;100501.56;4101570;28;20294;-52
2022/01/14 07:30:27;;;;;;;17.27;15.50;;;;;;;-2.36;76.52;100510.44;4088556;28;20241;-55
2022/01/14 07:32:29;;;;;;;16.67;14.93;;;;;;;-2.37;76.00;100508.75;4088040;28;20621;-54
2022/01/14 07:34:31;;;;;;;18.97;17.17;;;;;;;-2.36;76.10;100510.44;4089870;28;20211;-54
2022/01/14 07:36:33;;;;;;;17.17;15.37;;;;;;;-2.37;75.87;100519.47;4106560;28;20211;-53
2022/01/14 07:38:35;;;;;;;17.70;15.83;;;;;;;-2.37;76.36;100514.09;4109320;28;20216;-53
2022/01/14 07:40:39;;;;;;;17.07;15.57;;;;;;;-2.37;76.12;100514.09;4072441;29;20239;-54
2022/01/14 07:42:41;;;;;;;18.03;16.43;;;;;;;-2.34;75.96;100516.56;4091100;28;20839;-51
2022/01/14 07:44:43;;;;;;;17.27;15.73;;;;;;;-2.33;76.01;100516.41;4108561;28;20261;-53
2022/01/14 07:46:45;;;;;;;16.10;14.57;;;;;;;-2.33;75.92;100516.41;4094595;28;20706;-54
2022/01/14 07:48:47;;;;;;;20.40;15.77;;;;;;;-2.32;76.01;100514.59;4106932;28;20297;-54
2022/01/14 07:50:49;;;;;;;18.03;15.73;;;;;;;-2.34;75.91;100509.34;4090936;28;20227;-52
2022/01/14 07:52:51;;;;;;;19.27;16.40;;;;;;;-2.32;75.88;100522.63;4093211;28;20203;-54
2022/01/14 07:54:53;;;;;;;24.00;19.07;;;;;;;-2.32;75.95;100520.81;4108138;28;20207;-54
2022/01/14 07:56:58;;;;;;;18.57;16.43;;;;;;;-2.31;76.01;100525.22;4104819;28;20298;-53
2022/01/14 07:59:00;;;;;;;20.57;18.57;;;;;;;-2.31;76.06;100524.34;4102069;28;20206;-52
2022/01/14 08:01:05;;;;;;;20.20;18.13;;;;;;;-2.32;76.13;100523.50;4089740;28;20243;-54
2022/01/14 08:03:10;;;;;;;17.47;15.77;;;;;;;-2.33;76.10;100527.13;4093000;28;20208;-53
2022/01/14 08:05:13;;;;;;;18.67;16.97;;;;;;;-2.29;75.79;100531.28;4073979;28;20247;-52
2022/01/14 08:07:21;;;;;;;21.17;18.33;;;;;;;-2.26;75.90;100532.88;4089873;28;20270;-52
2022/01/14 08:09:27;;;;;;;23.77;21.53;;;;;;;-2.24;75.87;100533.63;4106332;28;20206;-55
2022/01/14 08:11:29;;;;;;;20.73;18.73;;;;;;;-2.22;76.12;100539.72;4101696;28;20312;-53
2022/01/14 08:13:31;;;;;;;21.70;18.43;;;;;;;-2.14;75.49;100529.25;4088436;29;20324;-53
2022/01/14 08:15:32;;;;;;;21.43;19.67;;;;;;;-2.01;75.26;100528.13;4107339;28;20249;-52
2022/01/14 08:17:34;;;;;;;20.90;19.10;;;;;;;-1.92;75.13;100526.56;4106206;28;20298;-52
2022/01/14 08:19:36;;;;;;;21.10;18.90;;;;;;;-1.95;75.12;100526.81;4106603;28;20206;-52
2022/01/14 08:21:39;;;;;;;22.50;20.37;;;;;;;-2.02;76.36;100525.59;4103395;28;20375;-51
2022/01/14 08:23:41;;;;;;;22.53;20.03;;;;;;;-1.76;76.33;100518.97;4088897;28;20218;-52
2022/01/14 08:25:43;;;;;;;23.10;20.80;;;;;;;-1.11;76.21;100519.81;4105046;28;20290;-55
2022/01/14 08:27:44;;;;;;;19.40;17.60;;;;;;;-0.73;74.47;100517.44;4086527;28;20215;-54
2022/01/14 08:29:47;;;;;;;20.87;15.77;;;;;;;-0.11;74.22;100519.97;4072276;29;20256;-53
2022/01/14 08:31:49;;;;;;;16.90;15.45;;;;;;;0.13;73.05;100517.81;4088921;28;20240;-54
2022/01/14 08:33:53;;;;;;;16.55;14.95;;;;;;;0.16;71.81;100525.63;4106096;28;20269;-55
2022/01/14 08:35:55;;;;;;;17.63;16.15;;;;;;;0.71;71.53;100530.50;4109442;28;20301;-56
2022/01/14 08:37:57;;;;;;;15.95;14.55;;;;;;;1.19;70.78;100530.53;4105170;28;20290;-55
2022/01/14 08:39:59;;;;;;;16.40;15.00;;;;;;;1.57;69.61;100525.13;4084226;28;20867;-54
2022/01/14 08:42:04;;;;;;;16.13;14.73;;;;;;;1.58;67.30;100521.44;4108491;28;20223;-53
2022/01/14 08:44:06;;;;;;;16.08;14.68;;;;;;;1.66;68.88;100514.31;4108911;28;20211;-54
2022/01/14 08:46:25;;;;;;;17.58;15.95;;;;;;;1.84;69.67;100517.97;4097039;28;20210;-54
2022/01/14 08:48:36;;;;;;;18.10;16.42;;;;;;;2.37;68.59;100516.38;4108028;28;20202;-55
2022/01/14 08:50:39;;;;;;;18.42;16.80;;;;;;;2.39;68.02;100519.75;4107793;28;20233;-56
2022/01/14 08:52:41;;;;;;;18.00;16.48;;;;;;;1.97;68.75;100515.81;4092688;28;20327;-55
2022/01/14 08:54:43;;;;;;;18.30;16.67;;;;;;;1.69;68.48;100515.88;4093461;28;20203;-55
2022/01/14 08:56:45;;;;;;;17.45;15.98;;;;;;;1.33;68.78;100512.09;4107204;28;20278;-55
2022/01/14 08:58:47;;;;;;;16.85;15.45;;;;;;;1.15;69.38;100511.09;4107182;28;20293;-55
2022/01/14 09:00:49;;;;;;;14.38;13.13;;;;;;;0.83;69.95;100510.53;4105223;28;20222;-55
2022/01/14 09:02:52;;;;;;;13.95;11.88;;;;;;;0.54;71.16;100506.91;4092002;28;20322;-54
2022/01/14 09:04:54;;;;;;;12.18;11.02;;;;;;;0.54;71.16;100506.91;4108016;28;20222;-55
2022/01/14 09:06:55;;;;;;;15.20;12.55;;;;;;;0.39;71.39;100502.91;4108948;28;20339;-53
2022/01/14 09:08:57;;;;;;;11.60;10.20;;;;;;;0.20;72.27;100502.84;4091566;28;20261;-56
2022/01/14 09:10:59;;;;;;;12.45;10.50;;;;;;;0.21;72.15;100496.47;4096987;28;20222;-54
2022/01/14 09:13:01;;;;;;;14.52;12.07;;;;;;;0.17;72.60;100503.13;4114077;28;20233;-54
2022/01/14 09:15:04;;;;;;;12.65;9.70;;;;;;;0.03;73.50;100499.94;4084011;28;20227;-56
2022/01/14 09:17:06;;;;;;;15.30;13.68;;;;;;;0.05;72.92;100496.13;4096344;28;20211;-54
2022/01/14 09:19:07;;;;;;;14.60;13.30;;;;;;;0.12;72.93;100510.75;4094189;28;20200;-55
2022/01/14 09:21:09;;;;;;;18.88;15.57;;;;;;;0.14;72.83;100514.16;4110754;28;20227;-55
2022/01/14 09:23:16;;;;;;;18.33;16.63;;;;;;;0.17;72.46;100519.28;4095994;29;20204;-56
2022/01/14 09:25:19;;;;;;;19.42;15.98;;;;;;;0.17;72.95;100516.59;4096801;29;20215;-55
2022/01/14 09:27:21;;;;;;;19.65;17.90;;;;;;;0.15;72.84;100520.38;4097765;28;20383;-55
2022/01/14 09:29:22;;;;;;;21.25;19.38;;;;;;;0.16;72.76;100520.22;4107971;28;20253;-54
2022/01/14 09:31:24;;;;;;;16.02;14.52;;;;;;;0.18;72.77;100525.50;4108811;28;20756;-55
2022/01/14 09:33:27;;;;;;;18.45;16.67;;;;;;;0.17;72.78;100527.34;4112084;28;20211;-55
2022/01/14 09:35:28;;;;;;;17.10;15.40;;;;;;;0.23;72.92;100529.50;4098126;28;20212;-54
2022/01/14 09:37:30;;;;;;;18.48;16.52;;;;;;;0.31;72.81;100532.34;4112111;28;20206;-56
2022/01/14 09:39:34;;;;;;;19.30;17.05;;;;;;;0.31;72.77;100521.59;4096438;28;20219;-55
2022/01/14 09:41:38;;;;;;;24.00;19.10;;;;;;;0.39;73.03;100523.59;4112430;28;20219;-55
2022/01/14 09:43:40;;;;;;;23.50;19.13;;;;;;;0.38;73.44;100522.75;4108787;28;20289;-55
2022/01/14 09:45:42;;;;;;;19.88;18.02;;;;;;;0.33;73.41;100525.00;4112014;28;20771;-55
2022/01/14 09:47:50;;;;;;;20.77;18.88;;;;;;;0.35;74.06;100528.38;4112572;28;20871;-56